sensor_id;sensor_type;location;lat;lon;timestamp;P1;durP1;ratioP1;P2;durP2;ratioP2
21777;SDS011;11050;52.222;20.916;2022-10-15T00:00:38;81.80;;;44.07;;
21777;SDS011;11050;52.222;20.916;2022-10-15T00:03:05;82.07;;;43.57;;
21777;SDS011;11050;52.222;20.916;2022-10-15T00:05:31;79.60;;;43.13;;
21777;SDS011;11050;52.222;20.916;2022-10-15T00:07:57;76.03;;;44.00;;
21777;SDS011;11050;52.222;20.916;2022-10-15T00:10:22;83.80;;;43.70;;
21777;SDS011;11050;52.222;20.916;2022-10-15T00:12:48;78.70;;;43.73;;
21777;SDS011;11050;52.222;20.916;2022-10-15T00:15:14;78.77;;;42.17;;
21777;SDS011;11050;52.222;20.916;2022-10-15T00:17:40;79.10;;;43.37;;
21777;SDS011;11050;52.222;20.916;2022-10-15T00:20:08;83.87;;;43.57;;
21777;SDS011;11050;52.222;20.916;2022-10-15T00:22:35;82.33;;;42.13;;
21777;SDS011;11050;52.222;20.916;2022-10-15T00:25:01;77.70;;;43.83;;
21777;SDS011;11050;52.222;20.916;2022-10-15T00:27:28;82.73;;;44.33;;
21777;SDS011;11050;52.222;20.916;2022-10-15T00:29:54;82.43;;;44.07;;
21777;SDS011;11050;52.222;20.916;2022-10-15T00:32:20;85.37;;;45.80;;
21777;SDS011;11050;52.222;20.916;2022-10-15T00:34:46;79.40;;;42.30;;
21777;SDS011;11050;52.222;20.916;2022-10-15T00:37:11;83.17;;;44.17;;
21777;SDS011;11050;52.222;20.916;2022-10-15T00:39:37;83.37;;;45.33;;
21777;SDS011;11050;52.222;20.916;2022-10-15T00:42:03;87.00;;;44.83;;
21777;SDS011;11050;52.222;20.916;2022-10-15T00:47:03;83.20;;;45.40;;
21777;SDS011;11050;52.222;20.916;2022-10-15T00:52:22;82.70;;;42.97;;
21777;SDS011;11050;52.222;20.916;2022-10-15T00:55:04;86.93;;;44.77;;
21777;SDS011;11050;52.222;20.916;2022-10-15T00:57:37;83.73;;;44.00;;
21777;SDS011;11050;52.222;20.916;2022-10-15T01:00:08;89.20;;;47.07;;
21777;SDS011;11050;52.222;20.916;2022-10-15T01:02:39;91.37;;;47.10;;
21777;SDS011;11050;52.222;20.916;2022-10-15T01:05:06;92.17;;;46.40;;
21777;SDS011;11050;52.222;20.916;2022-10-15T01:07:33;84.67;;;43.87;;
21777;SDS011;11050;52.222;20.916;2022-10-15T01:09:59;84.43;;;45.57;;
21777;SDS011;11050;52.222;20.916;2022-10-15T01:15:27;92.43;;;46.93;;
21777;SDS011;11050;52.222;20.916;2022-10-15T01:18:11;90.07;;;47.33;;
21777;SDS011;11050;52.222;20.916;2022-10-15T01:26:30;91.77;;;46.87;;
21777;SDS011;11050;52.222;20.916;2022-10-15T01:32:42;81.17;;;43.43;;
21777;SDS011;11050;52.222;20.916;2022-10-15T01:35:32;88.80;;;47.17;;
21777;SDS011;11050;52.222;20.916;2022-10-15T01:41:19;85.53;;;45.07;;
21777;SDS011;11050;52.222;20.916;2022-10-15T01:44:10;92.13;;;45.03;;
21777;SDS011;11050;52.222;20.916;2022-10-15T01:47:03;90.27;;;45.40;;
21777;SDS011;11050;52.222;20.916;2022-10-15T01:49:41;85.57;;;44.07;;
21777;SDS011;11050;52.222;20.916;2022-10-15T01:52:14;84.97;;;44.43;;
21777;SDS011;11050;52.222;20.916;2022-10-15T01:54:46;87.20;;;46.03;;
21777;SDS011;11050;52.222;20.916;2022-10-15T01:57:16;94.13;;;45.77;;
21777;SDS011;11050;52.222;20.916;2022-10-15T01:59:44;81.27;;;43.27;;
21777;SDS011;11050;52.222;20.916;2022-10-15T02:02:10;86.40;;;43.60;;
21777;SDS011;11050;52.222;20.916;2022-10-15T02:04:37;87.33;;;44.40;;
21777;SDS011;11050;52.222;20.916;2022-10-15T02:18:48;87.13;;;44.60;;
21777;SDS011;11050;52.222;20.916;2022-10-15T02:24:10;90.70;;;45.07;;
21777;SDS011;11050;52.222;20.916;2022-10-15T02:26:51;89.50;;;44.60;;
21777;SDS011;11050;52.222;20.916;2022-10-15T02:29:22;95.50;;;46.47;;
21777;SDS011;11050;52.222;20.916;2022-10-15T02:31:52;89.93;;;44.73;;
21777;SDS011;11050;52.222;20.916;2022-10-15T02:34:21;84.00;;;43.40;;
21777;SDS011;11050;52.222;20.916;2022-10-15T02:36:53;95.43;;;46.37;;
21777;SDS011;11050;52.222;20.916;2022-10-15T02:39:24;95.87;;;47.37;;
21777;SDS011;11050;52.222;20.916;2022-10-15T02:41:51;95.67;;;48.40;;
21777;SDS011;11050;52.222;20.916;2022-10-15T02:44:18;85.53;;;43.67;;
21777;SDS011;11050;52.222;20.916;2022-10-15T02:46:45;91.57;;;44.77;;
21777;SDS011;11050;52.222;20.916;2022-10-15T02:49:10;90.60;;;44.40;;
21777;SDS011;11050;52.222;20.916;2022-10-15T02:51:36;86.77;;;44.33;;
21777;SDS011;11050;52.222;20.916;2022-10-15T02:54:03;90.00;;;46.30;;
21777;SDS011;11050;52.222;20.916;2022-10-15T02:56:31;88.43;;;45.57;;
21777;SDS011;11050;52.222;20.916;2022-10-15T02:58:57;86.73;;;45.03;;
21777;SDS011;11050;52.222;20.916;2022-10-15T03:01:23;95.27;;;45.03;;
21777;SDS011;11050;52.222;20.916;2022-10-15T03:03:49;93.07;;;43.93;;
21777;SDS011;11050;52.222;20.916;2022-10-15T03:06:15;90.10;;;46.93;;
21777;SDS011;11050;52.222;20.916;2022-10-15T03:08:41;93.20;;;46.97;;
21777;SDS011;11050;52.222;20.916;2022-10-15T03:11:08;87.40;;;46.00;;
21777;SDS011;11050;52.222;20.916;2022-10-15T03:13:35;92.50;;;45.40;;
21777;SDS011;11050;52.222;20.916;2022-10-15T03:16:06;97.40;;;45.97;;
21777;SDS011;11050;52.222;20.916;2022-10-15T03:18:35;90.20;;;45.07;;
21777;SDS011;11050;52.222;20.916;2022-10-15T03:21:01;90.87;;;44.40;;
21777;SDS011;11050;52.222;20.916;2022-10-15T03:23:28;91.20;;;43.27;;
21777;SDS011;11050;52.222;20.916;2022-10-15T03:25:54;85.40;;;43.63;;
21777;SDS011;11050;52.222;20.916;2022-10-15T03:28:20;95.70;;;44.27;;
21777;SDS011;11050;52.222;20.916;2022-10-15T03:30:47;86.73;;;45.13;;
21777;SDS011;11050;52.222;20.916;2022-10-15T03:33:13;91.07;;;45.43;;
21777;SDS011;11050;52.222;20.916;2022-10-15T03:35:39;97.27;;;45.77;;
21777;SDS011;11050;52.222;20.916;2022-10-15T03:38:05;93.90;;;46.30;;
21777;SDS011;11050;52.222;20.916;2022-10-15T03:40:32;94.13;;;46.03;;
21777;SDS011;11050;52.222;20.916;2022-10-15T03:42:58;98.50;;;46.17;;
21777;SDS011;11050;52.222;20.916;2022-10-15T03:45:25;90.50;;;46.23;;
21777;SDS011;11050;52.222;20.916;2022-10-15T03:47:51;93.27;;;45.63;;
21777;SDS011;11050;52.222;20.916;2022-10-15T03:50:17;89.27;;;45.00;;
21777;SDS011;11050;52.222;20.916;2022-10-15T03:52:43;94.03;;;45.23;;
21777;SDS011;11050;52.222;20.916;2022-10-15T03:55:09;90.47;;;44.70;;
21777;SDS011;11050;52.222;20.916;2022-10-15T03:57:36;90.47;;;45.13;;
21777;SDS011;11050;52.222;20.916;2022-10-15T04:00:04;90.67;;;44.87;;
21777;SDS011;11050;52.222;20.916;2022-10-15T04:02:33;97.23;;;47.10;;
21777;SDS011;11050;52.222;20.916;2022-10-15T04:04:59;84.70;;;44.40;;
21777;SDS011;11050;52.222;20.916;2022-10-15T04:07:24;86.17;;;44.57;;
21777;SDS011;11050;52.222;20.916;2022-10-15T04:09:50;92.03;;;47.53;;
21777;SDS011;11050;52.222;20.916;2022-10-15T04:12:16;85.20;;;44.40;;
21777;SDS011;11050;52.222;20.916;2022-10-15T04:14:42;84.67;;;44.13;;
21777;SDS011;11050;52.222;20.916;2022-10-15T04:17:08;86.73;;;43.97;;
21777;SDS011;11050;52.222;20.916;2022-10-15T04:19:34;93.33;;;46.43;;
21777;SDS011;11050;52.222;20.916;2022-10-15T04:22:00;81.10;;;43.37;;
21777;SDS011;11050;52.222;20.916;2022-10-15T04:24:26;83.90;;;43.83;;
21777;SDS011;11050;52.222;20.916;2022-10-15T04:26:52;85.50;;;43.37;;
21777;SDS011;11050;52.222;20.916;2022-10-15T04:29:17;83.10;;;43.67;;
21777;SDS011;11050;52.222;20.916;2022-10-15T04:31:43;89.40;;;45.83;;
21777;SDS011;11050;52.222;20.916;2022-10-15T04:34:09;87.87;;;43.93;;
21777;SDS011;11050;52.222;20.916;2022-10-15T04:36:35;82.03;;;41.53;;
21777;SDS011;11050;52.222;20.916;2022-10-15T04:39:01;83.13;;;42.87;;
21777;SDS011;11050;52.222;20.916;2022-10-15T04:41:29;84.67;;;43.50;;
21777;SDS011;11050;52.222;20.916;2022-10-15T04:43:55;88.47;;;45.03;;
21777;SDS011;11050;52.222;20.916;2022-10-15T04:46:21;77.70;;;40.50;;
21777;SDS011;11050;52.222;20.916;2022-10-15T04:48:48;79.67;;;42.43;;
21777;SDS011;11050;52.222;20.916;2022-10-15T04:51:18;76.07;;;40.53;;
21777;SDS011;11050;52.222;20.916;2022-10-15T04:53:45;77.83;;;41.27;;
21777;SDS011;11050;52.222;20.916;2022-10-15T04:56:13;78.13;;;41.17;;
21777;SDS011;11050;52.222;20.916;2022-10-15T04:58:42;81.03;;;42.27;;
21777;SDS011;11050;52.222;20.916;2022-10-15T05:01:13;76.13;;;42.47;;
21777;SDS011;11050;52.222;20.916;2022-10-15T05:03:43;75.50;;;40.10;;
21777;SDS011;11050;52.222;20.916;2022-10-15T05:06:12;73.73;;;39.67;;
21777;SDS011;11050;52.222;20.916;2022-10-15T05:08:44;69.73;;;39.40;;
21777;SDS011;11050;52.222;20.916;2022-10-15T05:11:18;80.57;;;41.33;;
21777;SDS011;11050;52.222;20.916;2022-10-15T05:13:51;70.77;;;40.70;;
21777;SDS011;11050;52.222;20.916;2022-10-15T05:16:20;69.77;;;39.33;;
21777;SDS011;11050;52.222;20.916;2022-10-15T05:18:54;78.13;;;41.93;;
21777;SDS011;11050;52.222;20.916;2022-10-15T05:21:26;77.57;;;40.07;;
21777;SDS011;11050;52.222;20.916;2022-10-15T05:23:52;72.93;;;40.63;;
21777;SDS011;11050;52.222;20.916;2022-10-15T05:26:20;78.93;;;41.90;;
21777;SDS011;11050;52.222;20.916;2022-10-15T05:28:49;69.30;;;38.87;;
21777;SDS011;11050;52.222;20.916;2022-10-15T05:31:17;72.10;;;39.37;;
21777;SDS011;11050;52.222;20.916;2022-10-15T05:33:46;65.33;;;39.07;;
21777;SDS011;11050;52.222;20.916;2022-10-15T05:36:17;73.40;;;40.13;;
21777;SDS011;11050;52.222;20.916;2022-10-15T05:38:47;69.43;;;41.47;;
21777;SDS011;11050;52.222;20.916;2022-10-15T05:41:22;71.70;;;39.97;;
21777;SDS011;11050;52.222;20.916;2022-10-15T05:43:49;70.80;;;39.80;;
21777;SDS011;11050;52.222;20.916;2022-10-15T05:46:18;73.47;;;40.93;;
21777;SDS011;11050;52.222;20.916;2022-10-15T05:48:48;69.33;;;39.13;;
21777;SDS011;11050;52.222;20.916;2022-10-15T05:51:19;67.97;;;38.97;;
21777;SDS011;11050;52.222;20.916;2022-10-15T05:53:45;69.07;;;39.57;;
21777;SDS011;11050;52.222;20.916;2022-10-15T05:56:12;65.93;;;38.37;;
21777;SDS011;11050;52.222;20.916;2022-10-15T05:58:39;61.33;;;36.05;;
21777;SDS011;11050;52.222;20.916;2022-10-15T06:01:07;65.60;;;38.93;;
21777;SDS011;11050;52.222;20.916;2022-10-15T06:03:35;67.80;;;38.93;;
21777;SDS011;11050;52.222;20.916;2022-10-15T06:06:01;65.57;;;38.80;;
21777;SDS011;11050;52.222;20.916;2022-10-15T06:08:28;63.30;;;38.00;;
21777;SDS011;11050;52.222;20.916;2022-10-15T06:10:54;70.63;;;38.53;;
21777;SDS011;11050;52.222;20.916;2022-10-15T06:13:27;65.03;;;38.37;;
21777;SDS011;11050;52.222;20.916;2022-10-15T06:15:53;64.67;;;38.90;;
21777;SDS011;11050;52.222;20.916;2022-10-15T06:18:18;62.80;;;38.27;;
21777;SDS011;11050;52.222;20.916;2022-10-15T06:20:49;58.95;;;35.78;;
21777;SDS011;11050;52.222;20.916;2022-10-15T06:23:17;63.27;;;37.53;;
21777;SDS011;11050;52.222;20.916;2022-10-15T06:25:43;60.77;;;38.30;;
21777;SDS011;11050;52.222;20.916;2022-10-15T06:28:10;67.57;;;39.07;;
21777;SDS011;11050;52.222;20.916;2022-10-15T06:30:35;60.75;;;38.88;;
21777;SDS011;11050;52.222;20.916;2022-10-15T06:33:01;61.80;;;37.33;;
21777;SDS011;11050;52.222;20.916;2022-10-15T06:35:27;59.45;;;37.22;;
21777;SDS011;11050;52.222;20.916;2022-10-15T06:38:02;61.03;;;38.65;;
21777;SDS011;11050;52.222;20.916;2022-10-15T06:40:29;63.80;;;36.97;;
21777;SDS011;11050;52.222;20.916;2022-10-15T06:43:02;59.30;;;36.95;;
21777;SDS011;11050;52.222;20.916;2022-10-15T06:45:34;57.28;;;36.30;;
21777;SDS011;11050;52.222;20.916;2022-10-15T06:48:02;54.30;;;36.63;;
21777;SDS011;11050;52.222;20.916;2022-10-15T06:50:33;59.15;;;36.90;;
21777;SDS011;11050;52.222;20.916;2022-10-15T06:53:01;60.28;;;38.05;;
21777;SDS011;11050;52.222;20.916;2022-10-15T06:55:28;60.00;;;36.15;;
21777;SDS011;11050;52.222;20.916;2022-10-15T06:57:54;60.63;;;37.65;;
21777;SDS011;11050;52.222;20.916;2022-10-15T07:00:21;60.75;;;36.45;;
21777;SDS011;11050;52.222;20.916;2022-10-15T07:02:49;62.60;;;37.45;;
21777;SDS011;11050;52.222;20.916;2022-10-15T07:05:16;70.80;;;43.60;;
21777;SDS011;11050;52.222;20.916;2022-10-15T07:07:49;67.53;;;42.30;;
21777;SDS011;11050;52.222;20.916;2022-10-15T07:10:17;67.85;;;44.35;;
21777;SDS011;11050;52.222;20.916;2022-10-15T07:12:43;64.95;;;39.15;;
21777;SDS011;11050;52.222;20.916;2022-10-15T07:15:08;54.85;;;34.83;;
21777;SDS011;11050;52.222;20.916;2022-10-15T07:17:34;55.35;;;34.78;;
21777;SDS011;11050;52.222;20.916;2022-10-15T07:20:00;56.13;;;35.30;;
21777;SDS011;11050;52.222;20.916;2022-10-15T07:22:26;57.35;;;33.30;;
21777;SDS011;11050;52.222;20.916;2022-10-15T07:24:51;50.45;;;33.15;;
21777;SDS011;11050;52.222;20.916;2022-10-15T07:27:17;52.50;;;33.40;;
21777;SDS011;11050;52.222;20.916;2022-10-15T07:29:43;54.95;;;33.13;;
21777;SDS011;11050;52.222;20.916;2022-10-15T07:32:09;49.10;;;32.42;;
21777;SDS011;11050;52.222;20.916;2022-10-15T07:34:34;47.55;;;32.35;;
21777;SDS011;11050;52.222;20.916;2022-10-15T07:37:00;52.42;;;32.70;;
21777;SDS011;11050;52.222;20.916;2022-10-15T07:39:26;51.10;;;32.22;;
21777;SDS011;11050;52.222;20.916;2022-10-15T07:41:51;48.55;;;31.70;;
21777;SDS011;11050;52.222;20.916;2022-10-15T07:44:17;47.22;;;31.80;;
21777;SDS011;11050;52.222;20.916;2022-10-15T07:46:43;48.78;;;32.75;;
21777;SDS011;11050;52.222;20.916;2022-10-15T07:49:08;47.65;;;30.45;;
21777;SDS011;11050;52.222;20.916;2022-10-15T07:51:35;44.38;;;30.88;;
21777;SDS011;11050;52.222;20.916;2022-10-15T07:54:01;44.95;;;29.77;;
21777;SDS011;11050;52.222;20.916;2022-10-15T07:56:26;45.97;;;30.15;;
21777;SDS011;11050;52.222;20.916;2022-10-15T07:58:52;43.97;;;29.27;;
21777;SDS011;11050;52.222;20.916;2022-10-15T08:01:18;46.40;;;31.52;;
21777;SDS011;11050;52.222;20.916;2022-10-15T08:03:45;49.08;;;31.42;;
21777;SDS011;11050;52.222;20.916;2022-10-15T08:06:11;51.92;;;32.53;;
21777;SDS011;11050;52.222;20.916;2022-10-15T08:08:37;44.33;;;29.83;;
21777;SDS011;11050;52.222;20.916;2022-10-15T08:11:04;48.53;;;30.55;;
21777;SDS011;11050;52.222;20.916;2022-10-15T08:13:35;46.42;;;31.35;;
21777;SDS011;11050;52.222;20.916;2022-10-15T08:16:06;48.35;;;31.45;;
21777;SDS011;11050;52.222;20.916;2022-10-15T08:18:34;47.40;;;31.80;;
21777;SDS011;11050;52.222;20.916;2022-10-15T08:21:01;49.55;;;34.75;;
21777;SDS011;11050;52.222;20.916;2022-10-15T08:23:30;49.63;;;32.53;;
21777;SDS011;11050;52.222;20.916;2022-10-15T08:25:57;44.45;;;30.80;;
21777;SDS011;11050;52.222;20.916;2022-10-15T08:28:24;42.47;;;29.38;;
21777;SDS011;11050;52.222;20.916;2022-10-15T08:30:58;48.00;;;29.88;;
21777;SDS011;11050;52.222;20.916;2022-10-15T08:33:26;39.42;;;27.92;;
21777;SDS011;11050;52.222;20.916;2022-10-15T08:35:53;47.25;;;31.23;;
21777;SDS011;11050;52.222;20.916;2022-10-15T08:38:19;43.00;;;29.95;;
21777;SDS011;11050;52.222;20.916;2022-10-15T08:40:46;44.25;;;28.27;;
21777;SDS011;11050;52.222;20.916;2022-10-15T08:45:53;38.85;;;25.73;;
21777;SDS011;11050;52.222;20.916;2022-10-15T08:48:58;39.35;;;26.15;;
21777;SDS011;11050;52.222;20.916;2022-10-15T08:51:33;42.78;;;26.75;;
21777;SDS011;11050;52.222;20.916;2022-10-15T08:54:12;38.50;;;25.80;;
21777;SDS011;11050;52.222;20.916;2022-10-15T08:56:52;42.55;;;27.20;;
21777;SDS011;11050;52.222;20.916;2022-10-15T08:59:39;38.28;;;25.02;;
21777;SDS011;11050;52.222;20.916;2022-10-15T09:02:23;38.90;;;26.10;;
21777;SDS011;11050;52.222;20.916;2022-10-15T09:14:12;37.33;;;25.30;;
21777;SDS011;11050;52.222;20.916;2022-10-15T09:16:44;39.55;;;27.52;;
21777;SDS011;11050;52.222;20.916;2022-10-15T09:19:23;38.92;;;25.67;;
21777;SDS011;11050;52.222;20.916;2022-10-15T09:21:52;37.13;;;26.27;;
21777;SDS011;11050;52.222;20.916;2022-10-15T09:24:20;44.50;;;27.17;;
21777;SDS011;11050;52.222;20.916;2022-10-15T09:29:49;43.08;;;25.60;;
21777;SDS011;11050;52.222;20.916;2022-10-15T09:32:37;36.28;;;26.35;;
21777;SDS011;11050;52.222;20.916;2022-10-15T09:41:31;37.50;;;25.48;;
21777;SDS011;11050;52.222;20.916;2022-10-15T09:44:10;34.42;;;25.75;;
21777;SDS011;11050;52.222;20.916;2022-10-15T09:46:42;33.35;;;25.05;;
21777;SDS011;11050;52.222;20.916;2022-10-15T09:49:20;45.33;;;25.77;;
21777;SDS011;11050;52.222;20.916;2022-10-15T09:57:22;32.95;;;23.58;;
21777;SDS011;11050;52.222;20.916;2022-10-15T09:59:53;33.08;;;22.83;;
21777;SDS011;11050;52.222;20.916;2022-10-15T10:02:27;34.40;;;22.75;;
21777;SDS011;11050;52.222;20.916;2022-10-15T10:04:53;35.17;;;22.83;;
21777;SDS011;11050;52.222;20.916;2022-10-15T10:07:30;40.47;;;24.02;;
21777;SDS011;11050;52.222;20.916;2022-10-15T10:10:23;35.53;;;24.40;;
21777;SDS011;11050;52.222;20.916;2022-10-15T10:12:53;35.33;;;22.27;;
21777;SDS011;11050;52.222;20.916;2022-10-15T10:17:53;32.65;;;22.50;;
21777;SDS011;11050;52.222;20.916;2022-10-15T10:20:24;33.92;;;22.63;;
21777;SDS011;11050;52.222;20.916;2022-10-15T10:22:53;32.03;;;22.38;;
21777;SDS011;11050;52.222;20.916;2022-10-15T10:27:52;28.05;;;21.30;;
21777;SDS011;11050;52.222;20.916;2022-10-15T10:30:37;29.58;;;21.17;;
21777;SDS011;11050;52.222;20.916;2022-10-15T10:33:13;26.38;;;20.15;;
21777;SDS011;11050;52.222;20.916;2022-10-15T10:35:50;26.77;;;19.58;;
21777;SDS011;11050;52.222;20.916;2022-10-15T10:38:18;27.05;;;20.73;;
21777;SDS011;11050;52.222;20.916;2022-10-15T10:40:49;31.65;;;21.55;;
21777;SDS011;11050;52.222;20.916;2022-10-15T10:43:20;33.47;;;20.73;;
21777;SDS011;11050;52.222;20.916;2022-10-15T10:45:58;30.67;;;20.13;;
21777;SDS011;11050;52.222;20.916;2022-10-15T10:48:37;25.73;;;19.23;;
21777;SDS011;11050;52.222;20.916;2022-10-15T10:51:23;26.17;;;19.38;;
21777;SDS011;11050;52.222;20.916;2022-10-15T10:53:56;26.27;;;20.15;;
21777;SDS011;11050;52.222;20.916;2022-10-15T10:56:27;29.15;;;19.48;;
21777;SDS011;11050;52.222;20.916;2022-10-15T10:59:49;28.83;;;19.48;;
21777;SDS011;11050;52.222;20.916;2022-10-15T11:02:14;30.02;;;19.13;;
21777;SDS011;11050;52.222;20.916;2022-10-15T11:04:40;27.52;;;19.40;;
21777;SDS011;11050;52.222;20.916;2022-10-15T11:15:52;22.35;;;17.65;;
21777;SDS011;11050;52.222;20.916;2022-10-15T11:24:21;23.77;;;17.02;;
21777;SDS011;11050;52.222;20.916;2022-10-15T11:27:14;29.20;;;19.05;;
21777;SDS011;11050;52.222;20.916;2022-10-15T11:30:02;22.08;;;18.05;;
21777;SDS011;11050;52.222;20.916;2022-10-15T11:41:51;23.63;;;17.40;;
21777;SDS011;11050;52.222;20.916;2022-10-15T11:44:57;21.38;;;16.95;;
21777;SDS011;11050;52.222;20.916;2022-10-15T12:04:33;23.65;;;17.75;;
21777;SDS011;11050;52.222;20.916;2022-10-15T12:07:02;22.98;;;17.48;;
21777;SDS011;11050;52.222;20.916;2022-10-15T12:09:34;26.17;;;17.52;;
21777;SDS011;11050;52.222;20.916;2022-10-15T12:12:11;22.55;;;17.60;;
21777;SDS011;11050;52.222;20.916;2022-10-15T12:20:44;23.00;;;17.55;;
21777;SDS011;11050;52.222;20.916;2022-10-15T12:28:56;21.58;;;17.30;;
21777;SDS011;11050;52.222;20.916;2022-10-15T12:31:25;26.30;;;16.77;;
21777;SDS011;11050;52.222;20.916;2022-10-15T12:34:24;26.08;;;17.88;;
21777;SDS011;11050;52.222;20.916;2022-10-15T12:37:04;21.35;;;17.23;;
21777;SDS011;11050;52.222;20.916;2022-10-15T12:39:42;25.63;;;17.33;;
21777;SDS011;11050;52.222;20.916;2022-10-15T12:42:19;22.65;;;16.88;;
21777;SDS011;11050;52.222;20.916;2022-10-15T12:44:58;22.80;;;17.13;;
21777;SDS011;11050;52.222;20.916;2022-10-15T12:50:31;24.20;;;16.25;;
21777;SDS011;11050;52.222;20.916;2022-10-15T12:53:02;22.30;;;16.77;;
21777;SDS011;11050;52.222;20.916;2022-10-15T12:56:33;23.88;;;17.15;;
21777;SDS011;11050;52.222;20.916;2022-10-15T12:58:45;20.65;;;16.33;;
21777;SDS011;11050;52.222;20.916;2022-10-15T13:16:36;23.52;;;17.38;;
21777;SDS011;11050;52.222;20.916;2022-10-15T13:19:15;27.10;;;17.60;;
21777;SDS011;11050;52.222;20.916;2022-10-15T13:21:56;21.08;;;16.25;;
21777;SDS011;11050;52.222;20.916;2022-10-15T13:24:28;22.70;;;18.40;;
21777;SDS011;11050;52.222;20.916;2022-10-15T13:27:12;27.15;;;18.08;;
21777;SDS011;11050;52.222;20.916;2022-10-15T13:32:31;23.45;;;17.75;;
21777;SDS011;11050;52.222;20.916;2022-10-15T13:35:08;27.15;;;17.10;;
21777;SDS011;11050;52.222;20.916;2022-10-15T13:37:37;23.65;;;17.48;;
21777;SDS011;11050;52.222;20.916;2022-10-15T13:40:05;22.92;;;18.45;;
21777;SDS011;11050;52.222;20.916;2022-10-15T13:42:32;23.60;;;18.88;;
21777;SDS011;11050;52.222;20.916;2022-10-15T13:45:17;24.67;;;17.95;;
21777;SDS011;11050;52.222;20.916;2022-10-15T13:47:46;23.63;;;18.05;;
21777;SDS011;11050;52.222;20.916;2022-10-15T13:53:22;22.10;;;17.98;;
21777;SDS011;11050;52.222;20.916;2022-10-15T13:55:46;26.05;;;19.05;;
21777;SDS011;11050;52.222;20.916;2022-10-15T14:00:55;24.13;;;18.10;;
21777;SDS011;11050;52.222;20.916;2022-10-15T14:03:30;28.50;;;18.20;;
21777;SDS011;11050;52.222;20.916;2022-10-15T14:06:47;38.90;;;18.20;;
21777;SDS011;11050;52.222;20.916;2022-10-15T14:08:54;24.45;;;18.40;;
21777;SDS011;11050;52.222;20.916;2022-10-15T14:11:23;26.48;;;18.80;;
21777;SDS011;11050;52.222;20.916;2022-10-15T14:13:52;24.65;;;18.15;;
21777;SDS011;11050;52.222;20.916;2022-10-15T14:16:23;22.58;;;18.10;;
21777;SDS011;11050;52.222;20.916;2022-10-15T14:19:17;26.05;;;17.95;;
21777;SDS011;11050;52.222;20.916;2022-10-15T14:21:45;26.77;;;19.17;;
21777;SDS011;11050;52.222;20.916;2022-10-15T14:24:18;22.38;;;18.10;;
21777;SDS011;11050;52.222;20.916;2022-10-15T14:26:47;23.58;;;18.17;;
21777;SDS011;11050;52.222;20.916;2022-10-15T14:29:26;27.92;;;18.77;;
21777;SDS011;11050;52.222;20.916;2022-10-15T14:32:01;23.85;;;18.20;;
21777;SDS011;11050;52.222;20.916;2022-10-15T14:34:50;25.33;;;19.02;;
21777;SDS011;11050;52.222;20.916;2022-10-15T14:37:28;28.88;;;18.25;;
21777;SDS011;11050;52.222;20.916;2022-10-15T14:42:32;24.23;;;18.65;;
21777;SDS011;11050;52.222;20.916;2022-10-15T14:45:17;26.17;;;18.80;;
21777;SDS011;11050;52.222;20.916;2022-10-15T14:47:53;26.58;;;19.48;;
21777;SDS011;11050;52.222;20.916;2022-10-15T14:50:30;24.58;;;18.33;;
21777;SDS011;11050;52.222;20.916;2022-10-15T14:52:59;22.83;;;17.90;;
21777;SDS011;11050;52.222;20.916;2022-10-15T14:55:36;24.90;;;18.77;;
21777;SDS011;11050;52.222;20.916;2022-10-15T14:58:08;25.02;;;18.42;;
21777;SDS011;11050;52.222;20.916;2022-10-15T15:00:42;24.85;;;17.70;;
21777;SDS011;11050;52.222;20.916;2022-10-15T15:03:16;26.10;;;18.20;;
21777;SDS011;11050;52.222;20.916;2022-10-15T15:05:49;26.95;;;18.77;;
21777;SDS011;11050;52.222;20.916;2022-10-15T15:08:18;22.02;;;17.77;;
21777;SDS011;11050;52.222;20.916;2022-10-15T15:10:46;25.55;;;18.42;;
21777;SDS011;11050;52.222;20.916;2022-10-15T15:13:21;28.33;;;19.73;;
21777;SDS011;11050;52.222;20.916;2022-10-15T15:15:50;25.83;;;18.15;;
21777;SDS011;11050;52.222;20.916;2022-10-15T15:18:16;25.67;;;18.85;;
21777;SDS011;11050;52.222;20.916;2022-10-15T15:20:43;24.05;;;17.48;;
21777;SDS011;11050;52.222;20.916;2022-10-15T15:23:17;24.83;;;18.92;;
21777;SDS011;11050;52.222;20.916;2022-10-15T15:25:46;25.65;;;19.17;;
21777;SDS011;11050;52.222;20.916;2022-10-15T15:28:13;27.73;;;19.70;;
21777;SDS011;11050;52.222;20.916;2022-10-15T15:30:44;26.33;;;19.83;;
21777;SDS011;11050;52.222;20.916;2022-10-15T15:33:19;24.85;;;18.40;;
21777;SDS011;11050;52.222;20.916;2022-10-15T15:35:46;27.17;;;19.55;;
21777;SDS011;11050;52.222;20.916;2022-10-15T15:38:20;27.25;;;19.80;;
21777;SDS011;11050;52.222;20.916;2022-10-15T15:43:41;27.75;;;20.80;;
21777;SDS011;11050;52.222;20.916;2022-10-15T15:46:08;24.65;;;19.13;;
21777;SDS011;11050;52.222;20.916;2022-10-15T15:48:34;25.55;;;19.05;;
21777;SDS011;11050;52.222;20.916;2022-10-15T15:51:02;26.58;;;19.02;;
21777;SDS011;11050;52.222;20.916;2022-10-15T15:53:50;33.28;;;19.60;;
21777;SDS011;11050;52.222;20.916;2022-10-15T15:56:16;28.52;;;18.98;;
21777;SDS011;11050;52.222;20.916;2022-10-15T15:58:42;27.75;;;19.75;;
21777;SDS011;11050;52.222;20.916;2022-10-15T16:01:08;30.33;;;21.05;;
21777;SDS011;11050;52.222;20.916;2022-10-15T16:03:35;28.20;;;19.55;;
21777;SDS011;11050;52.222;20.916;2022-10-15T16:06:03;27.95;;;19.42;;
21777;SDS011;11050;52.222;20.916;2022-10-15T16:08:31;25.83;;;19.73;;
21777;SDS011;11050;52.222;20.916;2022-10-15T16:11:00;29.02;;;20.63;;
21777;SDS011;11050;52.222;20.916;2022-10-15T16:13:27;28.00;;;20.27;;
21777;SDS011;11050;52.222;20.916;2022-10-15T16:15:53;27.02;;;20.83;;
21777;SDS011;11050;52.222;20.916;2022-10-15T16:18:19;35.47;;;20.92;;
21777;SDS011;11050;52.222;20.916;2022-10-15T16:20:45;28.77;;;20.98;;
21777;SDS011;11050;52.222;20.916;2022-10-15T16:23:11;28.58;;;20.00;;
21777;SDS011;11050;52.222;20.916;2022-10-15T16:25:37;28.55;;;20.20;;
21777;SDS011;11050;52.222;20.916;2022-10-15T16:28:02;26.65;;;19.80;;
21777;SDS011;11050;52.222;20.916;2022-10-15T16:30:28;35.92;;;20.88;;
21777;SDS011;11050;52.222;20.916;2022-10-15T16:32:55;29.40;;;20.15;;
21777;SDS011;11050;52.222;20.916;2022-10-15T16:35:20;36.05;;;22.17;;
21777;SDS011;11050;52.222;20.916;2022-10-15T16:37:46;30.13;;;22.00;;
21777;SDS011;11050;52.222;20.916;2022-10-15T16:40:12;32.50;;;21.52;;
21777;SDS011;11050;52.222;20.916;2022-10-15T16:42:39;31.27;;;22.25;;
21777;SDS011;11050;52.222;20.916;2022-10-15T16:45:05;30.67;;;21.52;;
21777;SDS011;11050;52.222;20.916;2022-10-15T16:47:32;33.47;;;22.60;;
21777;SDS011;11050;52.222;20.916;2022-10-15T16:49:57;30.60;;;21.88;;
21777;SDS011;11050;52.222;20.916;2022-10-15T16:52:24;32.08;;;21.17;;
21777;SDS011;11050;52.222;20.916;2022-10-15T16:54:49;36.17;;;23.45;;
21777;SDS011;11050;52.222;20.916;2022-10-15T16:57:15;36.85;;;23.75;;
21777;SDS011;11050;52.222;20.916;2022-10-15T16:59:41;35.15;;;23.67;;